Time;durP1;ratioP1;P1;durP2;ratioP2;P2;SDS_P1;SDS_P2;PMS_P1;PMS_P2;Temp;Humidity;BMP_temperature;BMP_pressure;BME280_temperature;BME280_humidity;BME280_pressure;Samples;Min_cycle;Max_cycle;Signal;HPM_P1;HPM_P2
2024/02/07 00:02:23;;;;;;;18.10;7.83;;;11.80;99.90;;;;;;7286185;19;20324;-82
2024/02/07 00:04:48;;;;;;;21.87;7.70;;;11.80;99.90;;;;;;7287054;19;20263;-82
2024/02/07 00:07:14;;;;;;;20.37;7.40;;;11.80;99.90;;;;;;7290034;19;20211;-82
2024/02/07 00:09:40;;;;;;;21.77;7.73;;;11.80;99.90;;;;;;7288570;19;20203;-82
2024/02/07 00:12:09;;;;;;;19.70;7.93;;;11.80;99.90;;;;;;7285035;19;20635;-82
2024/02/07 00:14:36;;;;;;;23.07;7.33;;;11.80;99.90;;;;;;7285950;19;20181;-81
2024/02/07 00:17:02;;;;;;;20.30;7.37;;;11.80;99.90;;;;;;7309546;19;20192;-82
2024/02/07 00:19:27;;;;;;;17.70;7.03;;;11.70;99.90;;;;;;7286316;19;20264;-81
2024/02/07 00:21:53;;;;;;;25.93;7.03;;;11.70;99.90;;;;;;7286167;19;20224;-81
2024/02/07 00:24:19;;;;;;;19.33;7.30;;;11.70;99.90;;;;;;7285270;19;20192;-81
2024/02/07 00:26:45;;;;;;;17.90;7.30;;;11.80;99.90;;;;;;7285153;19;20255;-81
2024/02/07 00:29:10;;;;;;;18.90;7.90;;;11.80;99.90;;;;;;7284365;19;20210;-81
2024/02/07 00:31:36;;;;;;;22.20;7.07;;;11.80;99.90;;;;;;7284371;19;20185;-80
2024/02/07 00:34:02;;;;;;;20.93;7.07;;;11.70;99.90;;;;;;7307199;19;20676;-81
2024/02/07 00:36:30;;;;;;;17.67;7.53;;;11.70;99.90;;;;;;7284519;19;20191;-82
2024/02/07 00:38:56;;;;;;;22.80;7.80;;;11.80;99.90;;;;;;7284154;19;20613;-82
2024/02/07 00:41:24;;;;;;;27.47;8.27;;;11.80;99.90;;;;;;7285296;19;20201;-82
2024/02/07 00:43:50;;;;;;;26.20;7.73;;;11.80;99.90;;;;;;7283251;19;20253;-81
2024/02/07 00:46:16;;;;;;;20.80;7.33;;;11.80;99.90;;;;;;7284081;19;20192;-81
2024/02/07 00:48:43;;;;;;;23.63;8.13;;;11.70;99.90;;;;;;7284027;19;20199;-81
2024/02/07 00:51:09;;;;;;;23.13;7.50;;;11.70;99.90;;;;;;7280731;19;20222;-82
2024/02/07 00:53:35;;;;;;;23.17;8.20;;;11.70;99.90;;;;;;7282239;19;20660;-80
2024/02/07 00:56:01;;;;;;;21.70;7.60;;;11.70;99.90;;;;;;7303774;19;20182;-82
2024/02/07 00:58:27;;;;;;;25.43;8.47;;;11.60;99.90;;;;;;7282295;19;20189;-82
2024/02/07 01:00:52;;;;;;;23.97;8.20;;;11.70;99.90;;;;;;7283942;19;20548;-82
2024/02/07 01:03:20;;;;;;;23.20;8.43;;;11.70;99.90;;;;;;7283257;19;20652;-82
2024/02/07 01:05:46;;;;;;;24.47;8.10;;;11.60;99.90;;;;;;7283793;19;20185;-82
2024/02/07 01:08:12;;;;;;;26.03;8.60;;;11.60;99.90;;;;;;7284882;19;20180;-81
2024/02/07 01:10:38;;;;;;;27.73;9.03;;;11.60;99.90;;;;;;7282920;19;20189;-81
2024/02/07 01:13:04;;;;;;;26.90;8.00;;;11.70;99.90;;;;;;7283070;19;20250;-81
2024/02/07 01:15:30;;;;;;;23.07;8.10;;;11.70;99.90;;;;;;7304723;19;20202;-81
2024/02/07 01:17:56;;;;;;;22.67;8.37;;;11.60;99.90;;;;;;7281878;19;20185;-81
2024/02/07 01:20:21;;;;;;;22.70;7.67;;;11.70;99.90;;;;;;7284401;19;20661;-82
2024/02/07 01:22:47;;;;;;;21.03;8.10;;;11.70;99.90;;;;;;7283967;19;20181;-81
2024/02/07 01:25:14;;;;;;;24.60;8.23;;;11.70;99.90;;;;;;7285008;19;20205;-81
2024/02/07 01:27:40;;;;;;;20.70;7.97;;;11.70;99.90;;;;;;7281379;19;20192;-82
2024/02/07 01:30:12;;;;;;;22.87;8.27;;;11.70;99.90;;;;;;7282614;19;20219;-80
2024/02/07 01:32:41;;;;;;;18.20;7.63;;;11.70;99.90;;;;;;7283035;19;20667;-81
2024/02/07 01:35:11;;;;;;;17.10;7.47;;;11.70;99.90;;;;;;7283899;19;20208;-81
2024/02/07 01:37:38;;;;;;;24.27;7.60;;;11.70;99.90;;;;;;7282449;19;20319;-82
2024/02/07 01:40:11;;;;;;;21.57;7.47;;;11.70;99.90;;;;;;7288333;19;20193;-81
2024/02/07 01:42:37;;;;;;;22.90;8.10;;;11.60;99.90;;;;;;7282174;19;20185;-82
2024/02/07 01:45:16;;;;;;;21.70;7.77;;;11.60;99.90;;;;;;7301527;19;20195;-78
2024/02/07 01:47:42;;;;;;;24.77;8.20;;;11.60;99.90;;;;;;7286478;19;20186;-82
2024/02/07 01:50:08;;;;;;;23.33;7.73;;;11.70;99.90;;;;;;7292581;19;20215;-81
2024/02/07 01:52:37;;;;;;;20.93;8.17;;;11.70;99.90;;;;;;7294866;19;20193;-80
2024/02/07 01:55:03;;;;;;;22.87;7.63;;;11.70;99.90;;;;;;7306526;19;20214;-80
2024/02/07 01:57:29;;;;;;;25.17;8.17;;;11.70;99.90;;;;;;7310882;19;20226;-81
2024/02/07 01:59:55;;;;;;;22.70;7.60;;;11.70;99.90;;;;;;7288369;19;20197;-83
2024/02/07 02:02:23;;;;;;;18.83;7.33;;;11.70;99.90;;;;;;7290521;19;20214;-82
2024/02/07 02:04:49;;;;;;;19.63;7.77;;;11.70;99.90;;;;;;7287903;19;20236;-83
2024/02/07 02:07:16;;;;;;;19.93;7.57;;;11.70;99.90;;;;;;7289392;19;20559;-82
2024/02/07 02:09:42;;;;;;;22.17;7.57;;;11.60;99.90;;;;;;7288455;19;20218;-83
2024/02/07 02:12:11;;;;;;;15.93;8.10;;;11.70;99.90;;;;;;7286971;19;20590;-82
2024/02/07 02:14:36;;;;;;;22.50;7.37;;;11.60;99.90;;;;;;7289593;19;20185;-82
2024/02/07 02:17:02;;;;;;;18.90;7.67;;;11.70;99.90;;;;;;7307747;19;20812;-83
2024/02/07 02:19:28;;;;;;;22.90;7.90;;;11.60;99.90;;;;;;7289049;19;20188;-82
2024/02/07 02:22:12;;;;;;;23.60;8.13;;;11.70;99.90;;;;;;7289522;19;20194;-82
2024/02/07 02:24:44;;;;;;;17.93;7.87;;;11.70;99.90;;;;;;7185640;19;2006169;-82
2024/02/07 02:27:24;;;;;;;18.70;7.97;;;11.60;99.90;;;;;;7288309;19;20198;-82
2024/02/07 02:29:58;;;;;;;20.10;7.80;;;11.70;99.90;;;;;;7287933;19;20192;-82
2024/02/07 02:32:27;;;;;;;22.67;8.20;;;11.70;99.90;;;;;;7288115;19;20200;-82
2024/02/07 02:34:54;;;;;;;27.17;8.23;;;11.70;99.90;;;;;;7288438;19;20280;-81
2024/02/07 02:37:21;;;;;;;21.27;7.87;;;11.70;99.90;;;;;;7287527;19;20529;-81
2024/02/07 02:39:49;;;;;;;18.17;7.73;;;11.70;99.90;;;;;;7286417;19;20201;-82
2024/02/07 02:42:15;;;;;;;21.40;7.87;;;11.70;99.90;;;;;;7287734;19;20197;-82
2024/02/07 02:44:42;;;;;;;22.43;8.00;;;11.60;99.90;;;;;;7286286;19;20231;-82
2024/02/07 02:47:07;;;;;;;17.57;7.73;;;11.70;99.90;;;;;;7285728;19;20192;-82
2024/02/07 02:49:36;;;;;;;22.77;7.77;;;11.70;99.90;;;;;;7303086;19;20206;-81
2024/02/07 02:52:03;;;;;;;25.43;8.67;;;11.70;99.90;;;;;;7308102;19;20196;-82
2024/02/07 02:54:32;;;;;;;22.10;8.70;;;11.70;99.90;;;;;;7288979;19;20188;-82
2024/02/07 02:57:00;;;;;;;19.73;8.13;;;11.70;99.90;;;;;;7288006;19;20192;-82
2024/02/07 02:59:27;;;;;;;21.63;7.73;;;11.70;99.90;;;;;;7285038;19;20188;-82
2024/02/07 03:01:53;;;;;;;20.10;8.27;;;11.60;99.90;;;;;;7287254;19;20610;-82
2024/02/07 03:04:21;;;;;;;22.57;8.77;;;11.60;99.90;;;;;;7288016;19;20193;-82
2024/02/07 03:07:12;;;;;;;25.50;8.40;;;11.70;99.90;;;;;;7288191;19;20193;-82
2024/02/07 03:09:48;;;;;;;22.13;8.90;;;11.70;99.90;;;;;;7184849;19;2004628;-82
2024/02/07 03:12:15;;;;;;;18.57;8.37;;;11.70;99.90;;;;;;7286217;19;20202;-82
2024/02/07 03:14:41;;;;;;;20.37;9.00;;;11.60;99.90;;;;;;7287309;19;20213;-83
2024/02/07 03:17:08;;;;;;;20.27;8.67;;;11.60;99.90;;;;;;7286815;19;20196;-82
2024/02/07 03:19:35;;;;;;;24.57;9.40;;;11.60;99.90;;;;;;7293613;19;20696;-81
2024/02/07 03:22:01;;;;;;;21.47;8.77;;;11.60;99.90;;;;;;7308753;19;20275;-81
2024/02/07 03:24:28;;;;;;;25.93;9.33;;;11.70;99.90;;;;;;7286465;19;20180;-81
2024/02/07 03:26:54;;;;;;;22.70;9.40;;;11.70;99.90;;;;;;7286507;19;20568;-81
2024/02/07 03:29:19;;;;;;;18.43;8.70;;;11.60;99.90;;;;;;7285631;19;20192;-82
2024/02/07 03:31:45;;;;;;;20.57;8.63;;;11.70;99.90;;;;;;7286483;19;20189;-81
2024/02/07 03:34:11;;;;;;;20.90;8.50;;;11.70;99.90;;;;;;7287577;19;20191;-81
2024/02/07 03:36:37;;;;;;;22.37;8.50;;;11.60;99.90;;;;;;7287106;19;20613;-81
2024/02/07 03:39:07;;;;;;;18.93;8.43;;;11.60;99.90;;;;;;7303527;19;20289;-79
2024/02/07 03:41:34;;;;;;;20.10;9.07;;;11.70;99.90;;;;;;7303267;19;20200;-80
2024/02/07 03:44:01;;;;;;;23.97;8.67;;;11.60;99.90;;;;;;7308914;19;20188;-81
2024/02/07 03:46:27;;;;;;;21.40;8.60;;;11.60;99.90;;;;;;7286198;19;20181;-81
2024/02/07 03:48:53;;;;;;;22.43;8.27;;;11.60;99.90;;;;;;7286900;19;20194;-81
2024/02/07 03:51:26;;;;;;;24.03;8.40;;;11.50;99.90;;;;;;7284923;19;20191;-81
2024/02/07 03:53:53;;;;;;;22.40;8.43;;;11.50;99.90;;;;;;7286365;19;20189;-82
2024/02/07 03:56:20;;;;;;;23.13;8.27;;;11.50;99.90;;;;;;7285704;19;20192;-82
2024/02/07 03:58:45;;;;;;;22.77;8.27;;;11.50;99.90;;;;;;7285474;19;20192;-84
2024/02/07 04:01:15;;;;;;;20.53;8.00;;;11.50;99.90;;;;;;7286635;19;20585;-83
2024/02/07 04:03:41;;;;;;;19.17;7.97;;;11.50;99.90;;;;;;7286209;19;20185;-82
2024/02/07 04:06:07;;;;;;;20.30;7.50;;;11.50;99.90;;;;;;7283775;19;20188;-82
2024/02/07 04:08:34;;;;;;;17.33;7.73;;;11.50;99.90;;;;;;7307044;19;20206;-81
2024/02/07 04:11:01;;;;;;;19.10;7.60;;;11.50;99.90;;;;;;7280723;19;20184;-82
2024/02/07 05:16:12;;;;;;;7.33;3.27;;;9.70;99.90;;;;;;7179119;19;2006143;-82
2024/02/07 05:18:38;;;;;;;7.43;3.27;;;9.20;99.90;;;;;;7283591;19;20293;-82
2024/02/07 05:21:06;;;;;;;9.23;3.87;;;8.70;99.90;;;;;;7286105;19;20185;-82
2024/02/07 05:23:32;;;;;;;8.87;4.00;;;8.30;99.90;;;;;;7304710;19;20252;-83
2024/02/07 05:26:01;;;;;;;10.27;5.73;;;8.20;99.90;;;;;;7283415;19;20185;-83
2024/02/07 05:28:27;;;;;;;13.13;7.00;;;8.20;99.90;;;;;;7283616;19;20198;-83
2024/02/07 05:30:53;;;;;;;10.67;6.17;;;8.30;99.90;;;;;;7283998;19;20189;-83
2024/02/07 05:33:19;;;;;;;15.07;8.47;;;8.20;99.90;;;;;;7283868;19;20185;-83
2024/02/07 05:35:45;;;;;;;18.87;9.07;;;8.10;99.90;;;;;;7283465;19;20189;-83
2024/02/07 05:38:10;;;;;;;16.83;10.10;;;8.30;99.90;;;;;;7282860;19;20181;-82
2024/02/07 05:40:36;;;;;;;20.30;10.80;;;8.60;99.90;;;;;;7282813;19;20186;-83
2024/02/07 05:43:02;;;;;;;19.13;11.13;;;8.80;99.90;;;;;;7304284;19;20196;-82
2024/02/07 05:45:28;;;;;;;19.73;12.13;;;8.80;99.90;;;;;;7281713;19;20181;-83
2024/02/07 05:47:55;;;;;;;20.17;12.13;;;8.70;99.90;;;;;;7282704;19;20189;-83
2024/02/07 05:50:22;;;;;;;21.40;13.63;;;8.70;99.90;;;;;;7281783;19;20227;-83
2024/02/07 05:52:48;;;;;;;22.70;13.23;;;8.80;99.90;;;;;;7277789;19;20264;-83
2024/02/07 05:55:14;;;;;;;17.07;10.70;;;8.80;99.90;;;;;;7279994;19;20201;-83
2024/02/07 05:57:40;;;;;;;11.83;6.07;;;8.70;99.90;;;;;;7280158;19;20205;-82
2024/02/07 06:00:08;;;;;;;5.53;2.67;;;8.30;99.90;;;;;;7278213;19;20194;-81
2024/02/07 06:02:38;;;;;;;4.60;2.40;;;8.10;99.90;;;;;;7280835;19;20205;-83
2024/02/07 06:05:05;;;;;;;5.87;2.77;;;7.90;99.90;;;;;;7298170;19;20660;-82
2024/02/07 06:07:31;;;;;;;7.07;3.13;;;7.80;99.90;;;;;;7303121;19;20185;-82
2024/02/07 06:09:57;;;;;;;6.63;3.37;;;7.80;99.90;;;;;;7281170;19;20181;-85
2024/02/07 06:12:24;;;;;;;8.77;3.90;;;7.70;99.90;;;;;;7286764;19;20187;-84
2024/02/07 06:14:50;;;;;;;10.97;4.47;;;7.70;99.90;;;;;;7282618;19;20181;-84
2024/02/07 06:17:15;;;;;;;10.43;4.10;;;7.90;99.90;;;;;;7281975;19;20412;-85
2024/02/07 06:19:41;;;;;;;10.93;5.90;;;8.00;99.90;;;;;;7283047;19;20371;-83
2024/02/07 06:22:07;;;;;;;10.27;5.17;;;8.00;99.90;;;;;;7282757;19;20192;-83
2024/02/07 06:24:33;;;;;;;12.40;5.37;;;8.20;99.90;;;;;;7302860;19;20222;-84
2024/02/07 06:26:59;;;;;;;8.87;4.23;;;8.30;99.90;;;;;;7280888;19;20190;-84
2024/02/07 06:29:25;;;;;;;8.00;3.30;;;8.30;99.90;;;;;;7282018;19;20183;-83
2024/02/07 06:31:51;;;;;;;6.67;3.30;;;8.30;99.90;;;;;;7281870;19;20197;-83
2024/02/07 06:34:17;;;;;;;7.33;3.70;;;8.20;99.90;;;;;;7284934;19;20265;-81
2024/02/07 06:36:42;;;;;;;8.27;4.40;;;8.10;99.90;;;;;;7288747;19;20283;-83
2024/02/07 06:39:08;;;;;;;8.50;4.33;;;7.90;99.90;;;;;;7288539;19;20185;-83
2024/02/07 06:41:34;;;;;;;11.50;5.53;;;8.10;99.90;;;;;;7303333;19;20251;-86
2024/02/07 06:44:00;;;;;;;11.77;6.23;;;8.10;99.90;;;;;;7303686;19;20189;-81
2024/02/07 06:46:25;;;;;;;11.90;5.93;;;8.20;99.90;;;;;;7288352;19;20297;-86
2024/02/07 06:48:51;;;;;;;35.17;7.67;;;8.10;99.90;;;;;;7290348;19;20189;-85
2024/02/07 06:51:17;;;;;;;18.63;6.93;;;8.00;99.90;;;;;;7288012;19;20189;-85
2024/02/07 06:53:42;;;;;;;28.90;7.53;;;8.10;99.90;;;;;;7286554;19;20177;-85
2024/02/07 06:56:09;;;;;;;58.67;8.63;;;8.20;99.90;;;;;;7287666;19;20214;-84
2024/02/07 06:58:34;;;;;;;51.27;7.37;;;8.20;99.90;;;;;;7296645;19;20184;-83
2024/02/07 07:01:00;;;;;;;15.23;6.67;;;8.30;99.90;;;;;;7309420;19;20197;-84
2024/02/07 07:03:26;;;;;;;13.17;5.60;;;8.20;99.90;;;;;;7286768;19;20207;-85
2024/02/07 07:05:52;;;;;;;17.03;5.60;;;8.20;99.90;;;;;;7288857;19;20222;-86
2024/02/07 07:08:18;;;;;;;10.33;4.03;;;8.30;99.90;;;;;;7288579;19;20184;-86
2024/02/07 07:10:43;;;;;;;9.40;3.70;;;8.20;99.90;;;;;;7288264;19;20761;-88
2024/02/07 07:13:09;;;;;;;7.03;3.03;;;8.10;99.90;;;;;;7289442;19;20717;-89
2024/02/07 07:15:35;;;;;;;7.50;3.07;;;8.00;99.90;;;;;;7291660;19;20222;-89
2024/02/07 07:18:01;;;;;;;8.40;2.70;;;8.00;99.90;;;;;;7310966;19;20212;-90
2024/02/07 07:20:31;;;;;;;6.83;2.50;;;8.00;99.90;;;;;;7289843;19;20189;-90
2024/02/07 07:23:01;;;;;;;5.37;2.50;;;7.80;99.90;;;;;;7289884;19;20185;-89
2024/02/07 07:25:26;;;;;;;6.20;2.57;;;7.80;99.90;;;;;;7289409;19;20192;-90
2024/02/07 07:27:52;;;;;;;6.83;2.97;;;7.70;99.90;;;;;;7287908;19;20192;-89
2024/02/07 07:30:18;;;;;;;5.83;2.70;;;7.60;99.90;;;;;;7289587;19;20206;-90
2024/02/07 07:32:47;;;;;;;7.83;2.20;;;7.40;99.90;;;;;;7289488;19;20202;-89
2024/02/07 07:35:13;;;;;;;7.83;1.93;;;7.20;99.90;;;;;;7310215;19;20188;-90
2024/02/07 07:37:39;;;;;;;4.70;1.40;;;7.00;99.90;;;;;;7308024;19;20189;-86
2024/02/07 07:40:05;;;;;;;6.23;1.80;;;6.90;99.90;;;;;;7314188;19;20190;-85
2024/02/07 07:42:31;;;;;;;8.63;2.10;;;6.90;99.90;;;;;;7321707;19;20209;-87
2024/02/07 07:44:56;;;;;;;8.57;1.90;;;6.90;99.90;;;;;;7287069;19;20724;-88
2024/02/07 07:47:23;;;;;;;6.40;2.10;;;7.00;99.90;;;;;;7286101;19;21685;-86
2024/02/07 07:49:49;;;;;;;7.07;2.20;;;6.90;99.90;;;;;;7287345;19;20185;-86
2024/02/07 07:52:15;;;;;;;6.27;2.80;;;6.90;99.90;;;;;;7286732;19;20220;-87
2024/02/07 07:54:41;;;;;;;9.30;3.43;;;6.80;99.90;;;;;;7283622;19;20210;-87
2024/02/07 07:57:09;;;;;;;8.30;3.43;;;6.80;99.90;;;;;;7289501;19;20200;-87
2024/02/07 07:59:35;;;;;;;11.13;3.47;;;6.80;99.90;;;;;;7288461;19;20202;-87
2024/02/07 08:02:02;;;;;;;9.50;3.87;;;6.70;99.90;;;;;;7308944;19;20209;-86
2024/02/07 08:04:27;;;;;;;10.93;3.70;;;6.80;99.90;;;;;;7287323;19;20244;-85
2024/02/07 08:06:55;;;;;;;9.63;3.70;;;6.90;99.90;;;;;;7287412;19;20201;-87
2024/02/07 08:09:22;;;;;;;13.10;4.40;;;7.10;99.90;;;;;;7286922;19;20196;-86
2024/02/07 08:11:48;;;;;;;10.40;4.37;;;7.20;99.90;;;;;;7285335;19;20288;-82
2024/02/07 08:14:14;;;;;;;9.97;3.93;;;7.20;99.90;;;;;;7284208;19;20252;-84
2024/02/07 08:16:41;;;;;;;10.70;3.00;;;7.20;99.90;;;;;;7286745;19;20188;-86
2024/02/07 08:19:07;;;;;;;5.67;2.30;;;7.00;99.90;;;;;;7286022;19;20192;-86
2024/02/07 08:21:33;;;;;;;6.40;2.03;;;6.80;99.90;;;;;;7309988;19;20207;-87
2024/02/07 08:24:00;;;;;;;5.53;1.73;;;6.70;99.90;;;;;;7286826;19;20197;-85
2024/02/07 08:26:27;;;;;;;6.47;1.40;;;6.70;99.90;;;;;;7286741;19;20182;-86
2024/02/07 08:28:53;;;;;;;6.00;1.43;;;6.50;99.90;;;;;;7285854;19;20196;-87
2024/02/07 08:31:18;;;;;;;6.23;1.23;;;6.30;99.90;;;;;;7288084;19;20196;-87
2024/02/07 08:33:44;;;;;;;2.80;0.90;;;6.30;99.90;;;;;;7289324;19;20267;-88
2024/02/07 08:36:10;;;;;;;6.73;0.93;;;6.40;99.90;;;;;;7287138;19;20185;-88
2024/02/07 08:38:36;;;;;;;5.43;1.20;;;6.30;99.90;;;;;;7288015;19;20694;-88
2024/02/07 08:41:01;;;;;;;8.80;1.37;;;6.20;99.90;;;;;;7310624;19;20181;-88
2024/02/07 08:43:27;;;;;;;9.77;1.33;;;6.10;99.90;;;;;;7282885;19;20183;-89
2024/02/07 08:45:53;;;;;;;7.10;1.20;;;6.00;99.90;;;;;;7284845;19;20569;-88
2024/02/07 08:48:18;;;;;;;7.60;1.40;;;6.00;99.90;;;;;;7287250;19;20199;-88
2024/02/07 08:50:44;;;;;;;11.33;1.50;;;6.20;99.90;;;;;;7282961;19;20205;-88
2024/02/07 08:53:11;;;;;;;6.20;1.50;;;6.30;99.90;;;;;;7285624;19;20686;-88
2024/02/07 08:55:37;;;;;;;8.33;1.60;;;6.50;99.90;;;;;;7286689;19;20194;-86
2024/02/07 08:58:03;;;;;;;8.47;1.20;;;6.60;99.90;;;;;;7306180;19;20223;-87
2024/02/07 09:00:29;;;;;;;11.27;1.57;;;6.60;99.90;;;;;;7287086;19;20187;-88
2024/02/07 09:02:55;;;;;;;8.57;1.37;;;6.60;99.90;;;;;;7287880;19;20196;-87
2024/02/07 09:05:20;;;;;;;9.20;1.17;;;6.50;99.90;;;;;;7288005;19;20184;-85
2024/02/07 09:07:47;;;;;;;8.63;1.40;;;6.50;99.90;;;;;;7285400;19;20188;-86
2024/02/07 09:10:14;;;;;;;8.40;1.30;;;6.70;99.90;;;;;;7300613;19;20189;-87
2024/02/07 09:12:40;;;;;;;9.43;1.23;;;6.80;99.90;;;;;;7293398;19;20178;-86
2024/02/07 09:15:06;;;;;;;6.77;1.20;;;6.80;99.90;;;;;;7286906;19;20193;-85
2024/02/07 09:17:33;;;;;;;6.97;1.20;;;6.70;99.90;;;;;;7307676;19;20249;-87
2024/02/07 09:19:59;;;;;;;9.53;1.53;;;6.70;99.90;;;;;;7286068;19;20189;-87
2024/02/07 09:22:25;;;;;;;8.03;1.30;;;6.80;99.90;;;;;;7285068;19;20199;-87
2024/02/07 09:24:50;;;;;;;5.20;0.97;;;6.90;99.90;;;;;;7284889;19;20222;-87
2024/02/07 09:27:16;;;;;;;6.33;0.90;;;7.00;99.90;;;;;;7284636;19;20256;-88
2024/02/07 09:29:42;;;;;;;4.50;0.90;;;7.00;99.90;;;;;;7285084;19;20675;-87
2024/02/07 09:32:09;;;;;;;4.50;0.80;;;7.10;99.90;;;;;;7284374;19;20193;-86
2024/02/07 09:34:34;;;;;;;3.63;0.90;;;7.10;99.90;;;;;;7299301;19;20212;-86
2024/02/07 09:37:01;;;;;;;2.60;0.70;;;7.10;99.90;;;;;;7299466;19;20208;-87
2024/02/07 09:39:27;;;;;;;3.50;1.00;;;7.00;99.90;;;;;;7284366;19;20252;-88
2024/02/07 09:41:57;;;;;;;1.97;0.60;;;7.10;99.90;;;;;;7291966;19;20186;-87
2024/02/07 09:44:26;;;;;;;3.60;0.73;;;7.10;99.90;;;;;;7293571;19;20194;-87
2024/02/07 09:46:57;;;;;;;4.10;0.70;;;7.00;99.90;;;;;;7286059;19;20192;-88
2024/02/07 09:49:26;;;;;;;3.17;0.70;;;6.90;99.90;;;;;;7285107;19;20598;-88
2024/02/07 09:51:52;;;;;;;5.63;0.93;;;6.90;99.90;;;;;;7284326;19;20279;-88
2024/02/07 09:54:20;;;;;;;8.37;1.00;;;6.90;99.90;;;;;;7285179;19;20693;-87
2024/02/07 09:56:46;;;;;;;6.90;1.30;;;6.90;99.90;;;;;;7282848;19;20193;-87
2024/02/07 09:59:13;;;;;;;6.60;1.00;;;6.90;99.90;;;;;;7287756;19;20236;-88
2024/02/07 10:01:41;;;;;;;9.17;1.27;;;6.90;99.90;;;;;;7285854;19;20309;-87
2024/02/07 10:04:17;;;;;;;9.43;1.20;;;7.00;99.90;;;;;;7288930;19;20189;-89
2024/02/07 10:06:49;;;;;;;5.43;1.27;;;6.90;99.90;;;;;;7275586;19;20188;-88
2024/02/07 10:09:16;;;;;;;7.47;1.47;;;7.00;99.90;;;;;;7278168;19;20217;-88
2024/02/07 10:11:45;;;;;;;7.40;1.17;;;6.90;99.90;;;;;;7288122;19;20214;-88
2024/02/07 10:14:17;;;;;;;3.60;0.87;;;6.80;99.90;;;;;;7286304;19;20195;-87
2024/02/07 10:16:45;;;;;;;6.43;1.00;;;6.70;99.90;;;;;;7302571;19;20648;-87
2024/02/07 10:19:12;;;;;;;6.83;1.17;;;6.80;99.90;;;;;;7298004;19;20212;-87
2024/02/07 10:21:39;;;;;;;8.63;1.20;;;6.80;99.90;;;;;;7294702;19;20189;-87
2024/02/07 10:24:06;;;;;;;6.57;1.10;;;6.80;99.90;;;;;;7317853;19;20224;-85
2024/02/07 10:26:35;;;;;;;5.53;0.93;;;6.60;99.90;;;;;;7316858;19;20201;-86
2024/02/07 10:29:04;;;;;;;5.50;1.00;;;6.60;99.90;;;;;;7293622;19;20190;-88
2024/02/07 10:31:34;;;;;;;6.67;1.60;;;6.60;99.90;;;;;;7300898;19;20193;-88
2024/02/07 10:34:01;;;;;;;3.70;1.20;;;6.60;99.90;;;;;;7277844;19;20200;-87
2024/02/07 10:36:27;;;;;;;4.83;0.80;;;6.70;99.90;;;;;;7294466;19;20196;-86
2024/02/07 10:39:03;;;;;;;4.07;1.17;;;6.70;99.90;;;;;;7307021;19;20185;-87
2024/02/07 10:41:30;;;;;;;4.53;0.87;;;6.60;99.90;;;;;;7289588;19;20189;-88
2024/02/07 10:44:09;;;;;;;6.20;1.23;;;6.60;99.90;;;;;;7289826;19;20201;-86
2024/02/07 10:46:35;;;;;;;6.50;1.33;;;6.60;99.90;;;;;;7280966;19;20203;-87
2024/02/07 10:49:02;;;;;;;6.43;1.57;;;6.60;99.90;;;;;;7312204;19;20200;-88
2024/02/07 10:51:36;;;;;;;6.60;1.27;;;6.70;99.90;;;;;;7287843;19;20244;-87
2024/02/07 10:54:09;;;;;;;9.67;1.60;;;6.70;99.90;;;;;;7292085;19;20192;-90
2024/02/07 10:56:36;;;;;;;7.93;1.70;;;6.80;99.90;;;;;;7289739;19;20641;-84
2024/02/07 10:59:05;;;;;;;8.87;1.73;;;6.80;99.90;;;;;;7314645;19;20210;-92
2024/02/07 11:01:32;;;;;;;10.80;1.73;;;6.70;99.90;;;;;;7291850;19;20190;-91
2024/02/07 11:03:59;;;;;;;8.97;1.90;;;6.70;99.90;;;;;;7288512;19;20177;-91
2024/02/07 11:06:26;;;;;;;10.73;1.83;;;6.60;99.90;;;;;;7287853;19;20225;-92
2024/02/07 11:08:57;;;;;;;14.43;1.93;;;6.60;99.90;;;;;;7291780;19;20244;-92
2024/02/07 11:11:27;;;;;;;15.93;2.20;;;6.60;99.90;;;;;;7289420;19;20189;-92
2024/02/07 11:13:54;;;;;;;11.73;2.53;;;6.80;99.90;;;;;;7289913;19;20181;-91
2024/02/07 11:16:20;;;;;;;15.03;3.03;;;6.90;99.90;;;;;;7290696;19;20181;-92
2024/02/07 11:18:46;;;;;;;11.47;2.27;;;7.00;99.90;;;;;;7291127;19;20194;-91
2024/02/07 11:21:25;;;;;;;19.50;4.17;;;7.00;99.90;;;;;;7290053;19;21057;-91
2024/02/07 11:23:53;;;;;;;14.10;2.50;;;6.80;99.90;;;;;;7292204;19;20186;-92
2024/02/07 11:26:21;;;;;;;11.60;3.53;;;6.80;99.90;;;;;;7290877;19;20185;-90
2024/02/07 11:28:47;;;;;;;14.73;2.80;;;6.80;99.90;;;;;;7292532;19;20265;-91
2024/02/07 11:31:16;;;;;;;20.10;4.53;;;6.80;99.90;;;;;;7299279;19;20187;-91
2024/02/07 11:33:47;;;;;;;14.90;3.63;;;6.90;99.90;;;;;;7298238;19;20192;-88
2024/02/07 11:36:17;;;;;;;17.23;3.70;;;7.10;99.90;;;;;;7291643;19;20192;-89
2024/02/07 11:39:13;;;;;;;17.03;5.03;;;7.30;99.90;;;;;;7291263;19;20645;-87
2024/02/07 11:41:45;;;;;;;10.90;2.20;;;7.30;99.90;;;;;;7271175;19;20801;-88
2024/02/07 11:44:11;;;;;;;10.97;2.30;;;7.20;99.90;;;;;;7306471;19;20181;-87
2024/02/07 11:46:48;;;;;;;8.17;1.43;;;7.20;99.90;;;;;;7313710;19;20222;-84
2024/02/07 11:49:18;;;;;;;7.30;1.60;;;7.10;99.90;;;;;;7316385;19;20205;-88
2024/02/07 11:51:43;;;;;;;5.83;1.10;;;7.00;99.90;;;;;;7313646;19;20203;-88
2024/02/07 11:54:09;;;;;;;8.50;1.37;;;6.90;99.90;;;;;;7312470;19;20189;-86
2024/02/07 11:56:35;;;;;;;13.67;3.07;;;6.90;99.90;;;;;;7318379;19;20244;-87
2024/02/07 11:59:02;;;;;;;9.53;1.70;;;6.90;99.90;;;;;;7306662;19;20287;-88
2024/02/07 12:01:28;;;;;;;11.33;1.70;;;7.00;99.90;;;;;;7291823;19;20194;-89
2024/02/07 12:03:57;;;;;;;9.70;1.43;;;6.90;99.90;;;;;;7302366;19;20193;-90
2024/02/07 12:06:24;;;;;;;9.13;1.60;;;7.10;99.90;;;;;;7307520;19;20661;-89
2024/02/07 12:08:49;;;;;;;7.57;1.37;;;7.20;99.90;;;;;;7292776;19;20202;-89
2024/02/07 12:11:15;;;;;;;7.90;1.30;;;7.10;99.90;;;;;;7289233;19;20191;-89
2024/02/07 12:13:41;;;;;;;9.53;1.67;;;6.90;99.90;;;;;;7287036;19;20284;-89
2024/02/07 12:16:09;;;;;;;9.77;1.70;;;6.90;99.90;;;;;;7287709;19;20186;-87
2024/02/07 12:18:35;;;;;;;8.87;1.47;;;6.90;99.90;;;;;;7308735;19;20261;-81
2024/02/07 12:21:02;;;;;;;11.67;1.53;;;7.00;99.90;;;;;;7304050;19;20583;-89
2024/02/07 12:23:32;;;;;;;7.67;1.40;;;7.00;99.90;;;;;;7287333;19;20205;-89
2024/02/07 12:26:00;;;;;;;11.90;1.30;;;6.90;99.90;;;;;;7286259;19;20216;-89
2024/02/07 12:28:26;;;;;;;11.47;1.50;;;6.90;99.90;;;;;;7285531;19;20805;-90
2024/02/07 12:30:58;;;;;;;9.87;1.67;;;6.90;99.90;;;;;;7286568;19;20547;-89
2024/02/07 12:33:25;;;;;;;5.60;1.40;;;6.90;99.90;;;;;;7286277;19;20192;-89
2024/02/07 12:35:54;;;;;;;9.93;1.80;;;6.90;99.90;;;;;;7287987;19;20221;-89
2024/02/07 12:38:20;;;;;;;10.13;1.70;;;7.00;99.90;;;;;;7285114;19;20272;-90
2024/02/07 12:40:49;;;;;;;9.90;1.90;;;7.10;99.90;;;;;;7285763;19;20197;-91
2024/02/07 12:43:17;;;;;;;7.77;1.80;;;7.10;99.90;;;;;;7287134;19;20542;-91
2024/02/07 12:45:54;;;;;;;9.37;1.60;;;7.20;99.90;;;;;;7285910;19;20188;-91
2024/02/07 12:48:22;;;;;;;8.33;1.73;;;7.10;99.90;;;;;;7285276;19;20189;-91
2024/02/07 12:50:48;;;;;;;5.17;1.50;;;7.10;99.90;;;;;;7288011;19;20193;-91
2024/02/07 12:53:14;;;;;;;7.13;1.60;;;7.10;99.90;;;;;;7286531;19;20205;-90
2024/02/07 12:55:39;;;;;;;6.83;1.73;;;7.20;99.90;;;;;;7284735;19;20198;-92
2024/02/07 12:58:05;;;;;;;10.50;1.70;;;7.20;99.90;;;;;;7298695;19;20180;-88
2024/02/07 13:00:32;;;;;;;6.03;1.60;;;7.20;99.90;;;;;;7304841;19;20197;-91
2024/02/07 13:02:57;;;;;;;5.50;1.47;;;7.10;99.90;;;;;;7287863;19;20213;-91
2024/02/07 13:05:23;;;;;;;10.03;1.70;;;7.20;99.90;;;;;;7285154;19;20629;-91
2024/02/07 13:07:50;;;;;;;7.20;1.73;;;7.30;99.90;;;;;;7285617;19;20210;-91
2024/02/07 13:10:16;;;;;;;6.83;1.60;;;7.30;99.90;;;;;;7285149;19;20193;-92
2024/02/07 13:12:42;;;;;;;5.93;1.40;;;7.20;99.90;;;;;;7285240;19;20185;-91
2024/02/07 13:15:08;;;;;;;3.83;1.20;;;7.00;99.90;;;;;;7286502;19;20267;-91
2024/02/07 13:17:36;;;;;;;4.23;1.00;;;6.90;99.90;;;;;;7307089;19;20199;-91
2024/02/07 13:20:03;;;;;;;5.80;1.20;;;6.80;99.90;;;;;;7286750;19;20320;-91
2024/02/07 13:22:32;;;;;;;7.17;1.30;;;6.70;99.90;;;;;;7285986;19;20549;-91
2024/02/07 13:25:06;;;;;;;6.57;1.47;;;6.70;99.90;;;;;;7285480;19;20188;-92
2024/02/07 13:27:32;;;;;;;6.83;1.30;;;6.80;99.90;;;;;;7285367;19;20189;-91
2024/02/07 13:29:58;;;;;;;9.27;1.57;;;6.80;99.90;;;;;;7287038;19;20187;-92
2024/02/07 13:32:24;;;;;;;9.23;1.50;;;6.90;99.90;;;;;;7293722;19;20182;-91
2024/02/07 13:34:50;;;;;;;10.03;1.63;;;6.80;99.90;;;;;;7304948;19;20646;-92
2024/02/07 13:37:16;;;;;;;5.27;1.50;;;6.70;99.90;;;;;;7288615;19;20200;-92
2024/02/07 13:39:41;;;;;;;6.90;1.50;;;6.90;99.90;;;;;;7287441;19;20192;-93
2024/02/07 13:42:07;;;;;;;6.80;1.53;;;6.90;99.90;;;;;;7286757;19;20188;-92
2024/02/07 13:44:34;;;;;;;6.20;1.30;;;6.80;99.90;;;;;;7312355;19;20185;-92
2024/02/07 13:47:02;;;;;;;4.23;1.13;;;6.80;99.90;;;;;;7292191;19;20196;-92
2024/02/07 13:49:28;;;;;;;5.70;1.30;;;6.60;99.90;;;;;;7292017;19;20189;-92
2024/02/07 13:51:54;;;;;;;4.20;1.00;;;6.50;99.90;;;;;;7290379;19;20210;-92